createdAt,value
2018-01-23T00:00:33.858Z,14.90
2018-01-23T00:01:33.825Z,14.50
2018-01-23T00:02:33.785Z,14.60
2018-01-23T00:03:33.746Z,15.40
2018-01-23T00:04:33.708Z,15.70
2018-01-23T00:05:33.686Z,15.60
2018-01-23T00:06:33.626Z,15.20
2018-01-23T00:07:33.599Z,15.90
2018-01-23T00:08:33.571Z,15.20
2018-01-23T00:09:33.514Z,15.80
2018-01-23T00:10:33.470Z,16.50
2018-01-23T00:11:33.432Z,15.80
2018-01-23T00:12:33.395Z,15.40
2018-01-23T00:13:33.358Z,15.90
2018-01-23T00:14:33.320Z,15.60
2018-01-23T00:15:33.281Z,16.30
2018-01-23T00:16:33.236Z,15.50
2018-01-23T00:17:33.201Z,15.50
2018-01-23T00:18:33.163Z,16.40
2018-01-23T00:19:33.122Z,16.60
2018-01-23T00:20:33.084Z,16.20
2018-01-23T00:21:33.055Z,16.10
2018-01-23T00:22:33.056Z,15.60
2018-01-23T00:23:32.997Z,15.60
2018-01-23T00:24:32.930Z,15.00
2018-01-23T00:25:32.888Z,15.80
2018-01-23T00:26:32.851Z,15.70
2018-01-23T00:27:32.810Z,14.80
2018-01-23T00:28:32.814Z,15.90
2018-01-23T00:29:32.732Z,16.00
2018-01-23T00:30:32.722Z,15.50
2018-01-23T00:31:32.661Z,16.50
2018-01-23T00:32:32.617Z,14.20
2018-01-23T00:33:32.577Z,16.20
2018-01-23T00:34:32.560Z,14.60
2018-01-23T00:35:32.514Z,14.60
2018-01-23T00:36:32.479Z,16.10
2018-01-23T00:37:32.421Z,16.10
2018-01-23T00:38:32.381Z,16.10
2018-01-23T00:39:32.339Z,15.20
2018-01-23T00:40:32.300Z,16.50
2018-01-23T00:41:32.267Z,16.00
2018-01-23T00:42:32.274Z,17.40
2018-01-23T00:43:32.193Z,16.40
2018-01-23T00:44:32.142Z,17.10
2018-01-23T00:45:32.147Z,15.70
2018-01-23T00:46:32.093Z,16.40
2018-01-23T00:47:32.047Z,15.10
2018-01-23T00:48:31.985Z,14.60
2018-01-23T00:49:31.952Z,15.40
2018-01-23T00:50:31.916Z,14.80
2018-01-23T00:51:31.906Z,14.90
2018-01-23T00:52:31.834Z,15.60
2018-01-23T00:53:31.794Z,14.60
2018-01-23T00:54:31.748Z,15.00
2018-01-23T00:55:31.716Z,15.80
2018-01-23T00:56:31.677Z,15.60
2018-01-23T00:57:31.637Z,16.30
2018-01-23T00:58:31.594Z,14.40
2018-01-23T00:59:31.556Z,15.10
2018-01-23T01:00:31.523Z,15.50
2018-01-23T01:01:31.500Z,15.40
2018-01-23T01:02:31.463Z,15.20
2018-01-23T01:03:31.410Z,14.80
2018-01-23T01:04:31.361Z,15.80
2018-01-23T01:05:31.322Z,14.60
2018-01-23T01:06:31.303Z,14.20
2018-01-23T01:07:31.241Z,14.50
2018-01-23T01:08:31.215Z,13.80
2018-01-23T01:09:31.165Z,12.50
2018-01-23T01:10:31.127Z,12.90
2018-01-23T01:11:31.086Z,13.70
2018-01-23T01:12:31.049Z,14.30
2018-01-23T01:13:31.007Z,13.20
2018-01-23T01:14:30.967Z,13.40
2018-01-23T01:15:30.927Z,14.30
2018-01-23T01:16:30.886Z,13.50
2018-01-23T01:17:30.860Z,13.20
2018-01-23T01:18:30.832Z,13.20
2018-01-23T01:19:30.772Z,13.30
2018-01-23T01:20:30.733Z,13.90
2018-01-23T01:21:30.728Z,12.90
2018-01-23T01:22:30.654Z,14.20
2018-01-23T01:23:30.615Z,13.80
2018-01-23T01:24:30.583Z,13.20
2018-01-23T01:25:30.567Z,13.90
2018-01-23T01:26:30.503Z,13.30
2018-01-23T01:27:30.468Z,13.60
2018-01-23T01:28:30.429Z,12.10
2018-01-23T01:29:30.376Z,13.30
2018-01-23T01:30:30.349Z,13.00
2018-01-23T01:31:30.299Z,12.30
2018-01-23T01:32:30.264Z,13.00
2018-01-23T01:33:30.220Z,12.00
2018-01-23T01:34:30.181Z,12.70
2018-01-23T01:35:30.144Z,12.30
2018-01-23T01:36:30.102Z,12.50
2018-01-23T01:37:30.065Z,12.10
2018-01-23T01:38:30.032Z,12.60
2018-01-23T01:39:29.985Z,12.20
2018-01-23T01:40:29.953Z,12.90
2018-01-23T01:41:29.921Z,12.20
2018-01-23T01:42:29.868Z,12.70
2018-01-23T01:43:29.856Z,11.90
2018-01-23T01:44:29.805Z,11.90
2018-01-23T01:45:29.748Z,11.00
2018-01-23T01:46:29.729Z,11.60
2018-01-23T01:47:29.669Z,12.20
2018-01-23T01:48:29.632Z,11.70
2018-01-23T01:49:29.616Z,10.90
2018-01-23T01:50:29.581Z,12.20
2018-01-23T01:51:29.513Z,11.40
2018-01-23T01:52:29.486Z,10.40
2018-01-23T01:53:29.432Z,11.70
2018-01-23T01:54:29.419Z,12.40
2018-01-23T01:55:29.355Z,11.00
2018-01-23T01:56:29.317Z,11.40
2018-01-23T01:57:29.282Z,11.00
2018-01-23T01:58:29.248Z,11.90
2018-01-23T01:59:29.215Z,10.50
2018-01-23T02:00:29.188Z,11.50
2018-01-23T02:01:29.151Z,10.00
2018-01-23T02:02:29.092Z,11.50
2018-01-23T02:03:29.044Z,10.10
2018-01-23T02:04:29.006Z,11.40
2018-01-23T02:05:28.977Z,10.40
2018-01-23T02:06:28.928Z,10.00
2018-01-23T02:07:28.909Z,11.00
2018-01-23T02:08:28.871Z,11.10
2018-01-23T02:09:28.808Z,11.80
2018-01-23T02:10:28.789Z,10.20
2018-01-23T02:11:28.757Z,10.80
2018-01-23T02:12:28.689Z,12.20
2018-01-23T02:13:28.686Z,12.00
2018-01-23T02:14:28.643Z,10.30
2018-01-23T02:15:28.575Z,11.50
2018-01-23T02:16:28.532Z,11.40
2018-01-23T02:17:28.499Z,11.00
2018-01-23T02:18:28.507Z,11.10
2018-01-23T02:19:28.463Z,10.20
2018-01-23T02:20:28.380Z,11.00
2018-01-23T02:21:28.335Z,11.50
2018-01-23T02:22:28.340Z,10.90
2018-01-23T02:23:28.274Z,10.10
2018-01-23T02:24:28.224Z,12.10
2018-01-23T02:25:28.184Z,10.60
2018-01-23T02:26:28.141Z,11.00
2018-01-23T02:27:28.104Z,11.30
2018-01-23T02:28:28.114Z,10.90
2018-01-23T02:29:28.053Z,10.90
2018-01-23T02:30:28.002Z,10.90
2018-01-23T02:31:27.945Z,10.30
2018-01-23T02:32:27.907Z,10.70
2018-01-23T02:33:27.868Z,10.20
2018-01-23T02:34:27.825Z,10.40
2018-01-23T02:35:27.786Z,10.30
2018-01-23T02:36:27.778Z,11.10
2018-01-23T02:37:27.737Z,9.70
2018-01-23T02:38:27.699Z,10.50
2018-01-23T02:39:27.648Z,10.50
2018-01-23T02:40:27.627Z,9.90
2018-01-23T02:41:27.595Z,11.00
2018-01-23T02:42:27.513Z,9.80
2018-01-23T02:43:27.473Z,10.10
2018-01-23T02:44:27.456Z,10.60
2018-01-23T02:45:27.410Z,10.40
2018-01-23T02:46:27.361Z,9.80
2018-01-23T02:47:27.326Z,9.40
2018-01-23T02:48:27.342Z,9.20
2018-01-23T02:49:27.263Z,9.80
2018-01-23T02:50:27.207Z,10.20
2018-01-23T02:51:27.183Z,9.80
2018-01-23T02:52:27.157Z,9.10
2018-01-23T02:53:27.090Z,9.30
2018-01-23T02:54:27.041Z,9.90
2018-01-23T02:55:27.002Z,9.40
2018-01-23T02:56:26.966Z,10.70
2018-01-23T02:57:26.924Z,9.10
2018-01-23T02:58:26.929Z,8.30
2018-01-23T02:59:26.848Z,10.10
2018-01-23T03:00:26.806Z,8.90
2018-01-23T03:01:26.767Z,9.00
2018-01-23T03:02:26.723Z,9.50
2018-01-23T03:03:26.718Z,8.60
2018-01-23T03:04:26.651Z,9.80
2018-01-23T03:05:26.610Z,9.30
2018-01-23T03:06:26.576Z,9.00
2018-01-23T03:07:26.545Z,8.40
2018-01-23T03:08:26.497Z,8.70
2018-01-23T03:09:26.488Z,9.30
2018-01-23T03:10:26.410Z,9.00
2018-01-23T03:11:26.372Z,10.40
2018-01-23T03:12:26.349Z,9.30
2018-01-23T03:13:26.299Z,9.30
2018-01-23T03:14:26.304Z,9.30
2018-01-23T03:15:26.223Z,8.90
2018-01-23T03:16:26.181Z,8.80
2018-01-23T03:17:26.147Z,9.10
2018-01-23T03:18:26.113Z,8.80
2018-01-23T03:19:26.060Z,9.20
2018-01-23T03:20:26.025Z,9.00
2018-01-23T03:21:25.987Z,8.70
2018-01-23T03:22:25.977Z,10.20
2018-01-23T03:23:25.912Z,8.80
2018-01-23T03:24:25.866Z,8.90
2018-01-23T03:25:25.831Z,8.80
2018-01-23T03:26:25.787Z,8.40
2018-01-23T03:27:25.767Z,8.40
2018-01-23T03:28:25.737Z,8.70
2018-01-23T03:29:25.693Z,8.80
2018-01-23T03:30:25.659Z,9.40
2018-01-23T03:31:25.605Z,8.50
2018-01-23T03:32:25.554Z,8.70
2018-01-23T03:33:25.529Z,9.10
2018-01-23T03:34:25.470Z,8.40
2018-01-23T03:35:25.463Z,8.40
2018-01-23T03:36:25.400Z,10.10
2018-01-23T03:37:25.360Z,8.40
2018-01-23T03:38:25.336Z,8.90
2018-01-23T03:39:25.285Z,8.50
2018-01-23T03:40:25.244Z,9.00
2018-01-23T03:41:25.201Z,8.70
2018-01-23T03:42:25.167Z,9.00
2018-01-23T03:43:25.124Z,8.40
2018-01-23T03:44:25.128Z,9.00
2018-01-23T03:45:25.092Z,8.50
2018-01-23T03:46:25.025Z,9.00
2018-01-23T03:47:25.009Z,8.80
2018-01-23T03:48:24.957Z,8.50
2018-01-23T03:49:25.434Z,8.40
2018-01-23T03:50:25.433Z,8.80
2018-01-23T03:51:25.432Z,8.40
2018-01-23T03:52:24.966Z,8.70
2018-01-23T03:53:24.740Z,7.90
2018-01-23T03:54:24.699Z,8.80
2018-01-23T03:55:24.655Z,8.10
2018-01-23T03:56:24.618Z,8.40
2018-01-23T03:57:24.596Z,7.10
2018-01-23T03:58:24.542Z,8.60
2018-01-23T03:59:24.513Z,7.70
2018-01-23T04:00:24.471Z,8.50
2018-01-23T04:01:24.458Z,7.90
2018-01-23T04:02:24.401Z,8.50
2018-01-23T04:03:24.343Z,9.00
2018-01-23T04:04:24.338Z,7.80
2018-01-23T04:05:24.280Z,7.80
2018-01-23T04:06:24.232Z,8.40
2018-01-23T04:07:24.232Z,7.80
2018-01-23T04:08:24.197Z,8.40
2018-01-23T04:09:24.117Z,8.70
2018-01-23T04:10:24.074Z,8.50
2018-01-23T04:11:24.041Z,8.00
2018-01-23T04:12:24.003Z,8.00
2018-01-23T04:13:23.958Z,7.60
2018-01-23T04:14:23.960Z,7.70
2018-01-23T04:15:23.879Z,7.60
2018-01-23T04:16:23.841Z,7.80
2018-01-23T04:17:23.800Z,8.30
2018-01-23T04:18:23.787Z,7.50
2018-01-23T04:19:23.745Z,8.00
2018-01-23T04:20:23.681Z,7.90
2018-01-23T04:21:23.649Z,8.10
2018-01-23T04:22:23.607Z,8.10
2018-01-23T04:23:23.577Z,8.50
2018-01-23T04:24:23.557Z,7.50
2018-01-23T04:25:23.492Z,8.30
2018-01-23T04:26:23.495Z,8.10
2018-01-23T04:27:23.439Z,7.80
2018-01-23T04:28:23.388Z,8.80
2018-01-23T04:29:23.377Z,8.60
2018-01-23T04:30:23.297Z,8.20
2018-01-23T04:31:23.280Z,8.10
2018-01-23T04:32:23.218Z,7.60
2018-01-23T04:33:23.209Z,8.10
2018-01-23T04:34:23.159Z,8.30
2018-01-23T04:35:23.134Z,7.90
2018-01-23T04:36:23.130Z,7.90
2018-01-23T04:37:23.020Z,9.00
2018-01-23T04:38:23.004Z,7.70
2018-01-23T04:39:22.959Z,8.00
2018-01-23T04:40:22.904Z,8.40
2018-01-23T04:41:22.885Z,8.70
2018-01-23T04:42:22.830Z,8.60
2018-01-23T04:43:22.787Z,8.00
2018-01-23T04:44:22.762Z,8.80
2018-01-23T04:45:22.727Z,8.60
2018-01-23T04:46:22.670Z,8.50
2018-01-23T04:47:22.671Z,8.90
2018-01-23T04:48:22.607Z,8.90
2018-01-23T04:49:22.586Z,8.60
2018-01-23T04:50:22.523Z,9.50
2018-01-23T04:51:22.498Z,9.70
2018-01-23T04:52:22.436Z,8.50
2018-01-23T04:53:22.396Z,9.00
2018-01-23T04:54:22.357Z,9.50
2018-01-23T04:55:22.316Z,10.00
2018-01-23T04:56:22.291Z,9.40
2018-01-23T04:57:22.245Z,10.30
2018-01-23T04:58:22.230Z,9.90
2018-01-23T04:59:22.162Z,9.30
2018-01-23T05:00:22.141Z,10.40
2018-01-23T05:01:22.087Z,11.10
2018-01-23T05:02:22.050Z,10.20
2018-01-23T05:03:22.020Z,9.90
2018-01-23T05:04:21.970Z,10.40
2018-01-23T05:05:21.930Z,11.20
2018-01-23T05:06:21.898Z,10.40
2018-01-23T05:07:21.855Z,11.20
2018-01-23T05:08:21.815Z,10.20
2018-01-23T05:09:21.813Z,11.20
2018-01-23T05:10:21.738Z,11.40
2018-01-23T05:11:21.701Z,11.20
2018-01-23T05:12:21.661Z,10.90
2018-01-23T05:13:21.621Z,12.50
2018-01-23T05:14:21.584Z,12.40
2018-01-23T05:15:21.567Z,11.40
2018-01-23T05:16:21.505Z,11.90
2018-01-23T05:17:21.517Z,11.70
2018-01-23T05:18:21.451Z,11.40
2018-01-23T05:19:21.400Z,12.50
2018-01-23T05:20:21.358Z,12.40
2018-01-23T05:21:21.310Z,13.30
2018-01-23T05:22:21.272Z,13.10
2018-01-23T05:23:21.256Z,13.40
2018-01-23T05:24:21.194Z,13.70
2018-01-23T05:25:21.169Z,13.60
2018-01-23T05:26:21.113Z,14.20
2018-01-23T05:27:21.079Z,14.70
2018-01-23T05:28:21.037Z,14.20
2018-01-23T05:29:20.995Z,14.00
2018-01-23T05:30:20.963Z,13.70
2018-01-23T05:31:20.919Z,15.00
2018-01-23T05:32:20.881Z,14.10
2018-01-23T05:33:20.843Z,14.10
2018-01-23T05:34:20.813Z,14.60
2018-01-23T05:35:20.782Z,14.70
2018-01-23T05:36:20.742Z,14.90
2018-01-23T05:37:20.715Z,14.50
2018-01-23T05:38:20.662Z,15.90
2018-01-23T05:39:20.611Z,15.40
2018-01-23T05:40:20.568Z,15.20
2018-01-23T05:41:20.558Z,15.10
2018-01-23T05:42:20.518Z,15.30
2018-01-23T05:43:20.457Z,14.50
2018-01-23T05:44:20.443Z,14.60
2018-01-23T05:45:20.382Z,14.70
2018-01-23T05:46:20.368Z,14.60
2018-01-23T05:47:20.316Z,14.90
2018-01-23T05:48:20.266Z,15.10
2018-01-23T05:49:20.227Z,14.60
2018-01-23T05:50:20.193Z,15.40
2018-01-23T05:51:20.184Z,14.10
2018-01-23T05:52:20.110Z,15.10
2018-01-23T05:53:20.081Z,16.20
2018-01-23T05:54:20.039Z,14.80
2018-01-23T05:55:20.004Z,15.50
2018-01-23T05:56:19.972Z,15.50
2018-01-23T05:57:19.920Z,16.60
2018-01-23T05:58:19.876Z,15.30
2018-01-23T05:59:19.848Z,14.60
2018-01-23T06:00:19.817Z,14.30
2018-01-23T06:01:19.770Z,13.90
2018-01-23T06:02:19.737Z,13.70
2018-01-23T06:03:19.686Z,15.30
2018-01-23T06:04:19.647Z,15.50
2018-01-23T06:05:19.614Z,15.30
2018-01-23T06:06:19.570Z,14.30
2018-01-23T06:07:19.532Z,15.10
2018-01-23T06:08:19.501Z,14.90
2018-01-23T06:09:19.455Z,13.60
2018-01-23T06:10:19.411Z,14.40
2018-01-23T06:11:19.376Z,14.20
2018-01-23T06:12:19.361Z,13.90
2018-01-23T06:13:19.304Z,14.50
2018-01-23T06:14:19.261Z,14.30
2018-01-23T06:15:19.222Z,13.40
2018-01-23T06:16:19.187Z,13.30
2018-01-23T06:17:19.148Z,13.80
2018-01-23T06:18:19.116Z,12.70
2018-01-23T06:19:19.074Z,13.10
2018-01-23T06:20:19.034Z,14.10
2018-01-23T06:21:18.995Z,13.90
2018-01-23T06:22:18.952Z,13.70
2018-01-23T06:23:18.914Z,12.80
2018-01-23T06:24:18.878Z,12.90
2018-01-23T06:25:18.838Z,12.70
2018-01-23T06:26:18.800Z,12.80
2018-01-23T06:27:18.762Z,12.80
2018-01-23T06:28:18.721Z,12.20
2018-01-23T06:29:18.684Z,11.50
2018-01-23T06:30:18.647Z,12.60
2018-01-23T06:31:18.607Z,11.70
2018-01-23T06:32:18.571Z,11.40
2018-01-23T06:33:18.532Z,11.50
2018-01-23T06:34:18.492Z,12.10
2018-01-23T06:35:18.457Z,11.10
2018-01-23T06:36:18.418Z,12.20
2018-01-23T06:37:18.379Z,12.50
2018-01-23T06:38:18.340Z,11.60
2018-01-23T06:39:18.304Z,12.00
2018-01-23T06:40:18.263Z,11.80
2018-01-23T06:41:18.227Z,10.90
2018-01-23T06:42:18.186Z,10.80
2018-01-23T06:43:18.149Z,11.30
2018-01-23T06:44:18.110Z,11.00
2018-01-23T06:45:18.072Z,10.90
2018-01-23T06:46:18.033Z,11.10
2018-01-23T06:47:17.994Z,10.30
2018-01-23T06:48:17.961Z,10.20
2018-01-23T06:49:17.921Z,10.50
2018-01-23T06:50:17.880Z,10.40
2018-01-23T06:51:17.841Z,10.20
2018-01-23T06:52:17.805Z,10.50
2018-01-23T06:53:17.767Z,9.40
2018-01-23T06:54:17.727Z,9.80
2018-01-23T06:55:17.688Z,10.30
2018-01-23T06:56:17.650Z,10.60
2018-01-23T06:57:17.611Z,9.90
2018-01-23T06:58:17.574Z,10.60
2018-01-23T06:59:17.536Z,9.80
2018-01-23T07:00:17.497Z,10.50
2018-01-23T07:01:17.457Z,10.50
2018-01-23T07:02:17.419Z,10.50
2018-01-23T07:03:17.383Z,10.40
2018-01-23T07:04:17.343Z,10.70
2018-01-23T07:05:17.305Z,9.90
2018-01-23T07:06:17.267Z,9.80
2018-01-23T07:07:17.228Z,9.70
2018-01-23T07:08:17.189Z,9.60
2018-01-23T07:09:17.149Z,9.40
2018-01-23T07:10:17.111Z,9.90
2018-01-23T07:11:17.077Z,11.40
2018-01-23T07:12:17.036Z,10.60
2018-01-23T07:13:16.996Z,11.50
2018-01-23T07:14:16.959Z,10.20
2018-01-23T07:15:16.918Z,11.10
2018-01-23T07:16:16.879Z,11.80
2018-01-23T07:17:16.842Z,11.20
2018-01-23T07:18:16.801Z,12.20
2018-01-23T07:19:16.762Z,11.10
2018-01-23T07:20:16.725Z,11.80
2018-01-23T07:21:16.687Z,11.60
2018-01-23T07:22:16.647Z,11.90
2018-01-23T07:23:16.607Z,11.50
2018-01-23T07:24:16.568Z,10.80
2018-01-23T07:25:16.530Z,11.50
2018-01-23T07:26:16.492Z,11.50
2018-01-23T07:27:16.452Z,11.30
2018-01-23T07:28:16.420Z,10.40
2018-01-23T07:29:16.373Z,10.50
2018-01-23T07:30:16.332Z,10.70
2018-01-23T07:31:16.296Z,10.60
2018-01-23T07:32:16.258Z,10.00
2018-01-23T07:33:16.218Z,9.80
2018-01-23T07:34:16.178Z,10.10
2018-01-23T07:35:16.140Z,9.80
2018-01-23T07:36:16.107Z,10.40
2018-01-23T07:37:16.065Z,9.40
2018-01-23T07:38:16.022Z,8.60
2018-01-23T07:39:15.987Z,9.20
2018-01-23T07:40:15.948Z,10.00
2018-01-23T07:41:15.907Z,8.90
2018-01-23T07:42:15.870Z,8.70
2018-01-23T07:43:15.834Z,8.40
2018-01-23T07:44:15.793Z,8.70
2018-01-23T07:45:15.754Z,8.70
2018-01-23T07:46:15.715Z,8.40
2018-01-23T07:47:15.676Z,8.20
2018-01-23T07:48:15.635Z,8.80
2018-01-23T07:49:15.597Z,8.80
2018-01-23T07:50:15.560Z,8.30
2018-01-23T07:51:15.521Z,8.70
2018-01-23T07:52:15.484Z,8.20
2018-01-23T07:53:15.444Z,8.20
2018-01-23T07:54:15.406Z,8.20
2018-01-23T07:55:15.363Z,7.50
2018-01-23T07:56:15.326Z,7.70
2018-01-23T07:57:15.292Z,7.50
2018-01-23T07:58:15.247Z,8.10
2018-01-23T07:59:15.207Z,7.90
2018-01-23T08:00:15.167Z,7.60
2018-01-23T08:01:15.134Z,7.10
2018-01-23T08:02:15.096Z,7.20
2018-01-23T08:03:15.056Z,7.70
2018-01-23T08:04:15.016Z,7.90
2018-01-23T08:05:14.979Z,7.50
2018-01-23T08:06:14.944Z,7.40
2018-01-23T08:07:14.901Z,7.70
2018-01-23T08:08:14.863Z,7.90
2018-01-23T08:09:14.823Z,7.60
2018-01-23T08:10:14.783Z,6.90
2018-01-23T08:11:14.746Z,6.90
2018-01-23T08:12:14.712Z,6.60
2018-01-23T08:13:14.668Z,7.60
2018-01-23T08:14:14.631Z,6.90
2018-01-23T08:15:14.591Z,6.80
2018-01-23T08:16:14.552Z,6.30
2018-01-23T08:17:14.518Z,6.40
2018-01-23T08:18:14.476Z,6.60
2018-01-23T08:19:14.437Z,7.10
2018-01-23T08:20:14.398Z,6.10
2018-01-23T08:21:14.360Z,7.30
2018-01-23T08:22:14.322Z,6.20
2018-01-23T08:23:14.283Z,6.40
2018-01-23T08:24:14.243Z,6.90
2018-01-23T08:25:14.205Z,6.70
2018-01-23T08:26:14.166Z,5.90
2018-01-23T08:27:14.126Z,5.80
2018-01-23T08:28:14.094Z,5.90
2018-01-23T08:29:14.047Z,6.10
2018-01-23T08:30:14.016Z,6.10
2018-01-23T08:31:13.985Z,7.10
2018-01-23T08:32:13.936Z,5.90
2018-01-23T08:33:13.895Z,6.90
2018-01-23T08:34:13.858Z,6.70
2018-01-23T08:35:13.820Z,6.30
2018-01-23T08:36:13.781Z,7.50
2018-01-23T08:37:13.743Z,6.20
2018-01-23T08:38:13.704Z,6.60
2018-01-23T08:39:13.664Z,7.00
2018-01-23T08:40:13.628Z,6.80
2018-01-23T08:41:13.588Z,6.80
2018-01-23T08:42:13.571Z,7.10
2018-01-23T08:43:13.511Z,6.30
2018-01-23T08:44:13.477Z,7.80
2018-01-23T08:45:13.438Z,7.30
2018-01-23T08:46:13.398Z,6.70
2018-01-23T08:47:13.359Z,6.80
2018-01-23T08:48:13.320Z,5.80
2018-01-23T08:49:13.284Z,7.20
2018-01-23T08:50:13.244Z,7.00
2018-01-23T08:51:13.206Z,7.10
2018-01-23T08:52:13.169Z,6.60
2018-01-23T08:53:13.130Z,6.70
2018-01-23T08:54:13.094Z,7.10
2018-01-23T08:55:13.055Z,6.90
2018-01-23T08:56:13.019Z,7.20
2018-01-23T08:57:12.983Z,6.10
2018-01-23T08:58:12.940Z,6.50
2018-01-23T08:59:12.902Z,6.10
2018-01-23T09:00:12.866Z,6.00
2018-01-23T09:01:12.829Z,5.20
2018-01-23T09:02:12.790Z,6.30
2018-01-23T09:03:12.756Z,5.00
2018-01-23T09:04:12.716Z,5.00
2018-01-23T09:05:12.693Z,5.50
2018-01-23T09:06:12.639Z,5.70
2018-01-23T09:07:12.602Z,5.60
2018-01-23T09:08:12.563Z,5.60
2018-01-23T09:09:12.524Z,5.60
2018-01-23T09:10:12.488Z,5.90
2018-01-23T09:11:12.451Z,5.90
2018-01-23T09:12:12.439Z,5.70
2018-01-23T09:13:12.374Z,5.70
2018-01-23T09:14:12.336Z,5.40
2018-01-23T09:15:12.296Z,5.60
2018-01-23T09:16:12.260Z,6.30
2018-01-23T09:17:12.223Z,6.10
2018-01-23T09:18:12.184Z,6.30
2018-01-23T09:19:12.145Z,6.80
2018-01-23T09:20:12.107Z,6.20
2018-01-23T09:21:12.070Z,5.90
2018-01-23T09:22:12.045Z,6.00
2018-01-23T09:23:11.993Z,6.30
2018-01-23T09:24:11.957Z,6.40
2018-01-23T09:25:11.918Z,6.60
2018-01-23T09:26:11.875Z,5.60
2018-01-23T09:27:11.840Z,5.90
2018-01-23T09:28:11.802Z,5.40
2018-01-23T09:29:11.765Z,5.90
2018-01-23T09:30:11.725Z,6.60
2018-01-23T09:31:11.688Z,6.70
2018-01-23T09:32:11.652Z,6.50
2018-01-23T09:33:11.611Z,6.20
2018-01-23T09:34:11.574Z,6.30
2018-01-23T09:35:11.533Z,5.50
2018-01-23T09:36:11.496Z,6.30
2018-01-23T09:37:11.455Z,5.90
2018-01-23T09:38:11.417Z,5.80
2018-01-23T09:39:11.382Z,6.40
2018-01-23T09:40:11.342Z,6.20
2018-01-23T09:41:11.304Z,6.00
2018-01-23T09:42:11.266Z,6.50
2018-01-23T09:43:11.227Z,4.80
2018-01-23T09:44:11.188Z,5.60
2018-01-23T09:45:11.152Z,6.00
2018-01-23T09:46:11.113Z,7.60
2018-01-23T09:47:11.074Z,7.00
2018-01-23T09:48:11.038Z,6.60
2018-01-23T09:49:11.001Z,5.80
2018-01-23T09:50:10.956Z,6.30
2018-01-23T09:51:10.923Z,6.10
2018-01-23T09:52:10.883Z,6.40
2018-01-23T09:53:10.846Z,5.40
2018-01-23T09:54:10.806Z,5.90
2018-01-23T09:55:10.769Z,6.00
2018-01-23T09:56:10.735Z,5.20
2018-01-23T09:57:10.695Z,4.80
2018-01-23T09:58:10.655Z,6.10
2018-01-23T09:59:10.620Z,5.20
2018-01-23T10:00:10.582Z,5.60
2018-01-23T10:01:10.545Z,5.80
2018-01-23T10:02:10.512Z,5.40
2018-01-23T10:03:10.464Z,5.90
2018-01-23T10:04:10.432Z,5.50
2018-01-23T10:05:10.394Z,5.50
2018-01-23T10:06:10.355Z,5.10
2018-01-23T10:07:10.326Z,5.10
2018-01-23T10:08:10.281Z,5.10
2018-01-23T10:09:10.245Z,4.50
2018-01-23T10:10:10.218Z,4.70
2018-01-23T10:11:10.166Z,4.70
2018-01-23T10:12:10.130Z,4.50
2018-01-23T10:13:10.116Z,4.50
2018-01-23T10:14:10.053Z,5.20
2018-01-23T10:15:10.018Z,5.10
2018-01-23T10:16:09.984Z,4.50
2018-01-23T10:17:09.943Z,5.30
2018-01-23T10:18:09.904Z,5.90
2018-01-23T10:19:09.866Z,4.70
2018-01-23T10:20:09.828Z,5.30
2018-01-23T10:21:09.792Z,5.00
2018-01-23T10:22:09.753Z,4.70
2018-01-23T10:23:09.714Z,5.70
2018-01-23T10:24:09.679Z,5.60
2018-01-23T10:25:09.642Z,5.20
2018-01-23T10:26:09.601Z,5.30
2018-01-23T10:27:09.572Z,5.10
2018-01-23T10:28:09.527Z,5.00
2018-01-23T10:29:09.491Z,5.20
2018-01-23T10:30:09.452Z,5.50
2018-01-23T10:31:09.411Z,5.50
2018-01-23T10:32:09.376Z,5.20
2018-01-23T10:33:09.340Z,5.30
2018-01-23T10:34:09.303Z,5.00
2018-01-23T10:35:09.262Z,5.30
2018-01-23T10:36:09.232Z,5.20
2018-01-23T10:37:09.188Z,4.30
2018-01-23T10:38:09.155Z,5.20
2018-01-23T10:39:09.112Z,5.90
2018-01-23T10:40:09.076Z,5.20
2018-01-23T10:41:09.037Z,4.50
2018-01-23T10:42:08.999Z,5.10
2018-01-23T10:43:08.962Z,4.30
2018-01-23T10:44:08.927Z,3.90
2018-01-23T10:45:08.889Z,4.90
2018-01-23T10:46:08.851Z,5.40
2018-01-23T10:47:08.812Z,5.00
2018-01-23T10:48:08.778Z,5.00
2018-01-23T10:49:08.742Z,5.40
2018-01-23T10:50:08.702Z,5.20
2018-01-23T10:51:08.665Z,4.90
2018-01-23T10:52:08.628Z,5.00
2018-01-23T10:53:08.591Z,4.60
2018-01-23T10:54:08.552Z,4.50
2018-01-23T10:55:08.512Z,5.00
2018-01-23T10:56:08.480Z,4.70
2018-01-23T10:57:08.441Z,5.00
2018-01-23T10:58:08.404Z,4.90
2018-01-23T10:59:08.368Z,4.90
2018-01-23T11:00:08.328Z,4.20
2018-01-23T11:01:08.298Z,4.60
2018-01-23T11:02:08.254Z,5.10
2018-01-23T11:03:08.215Z,4.60
2018-01-23T11:04:08.181Z,4.70
2018-01-23T11:05:08.144Z,4.50
2018-01-23T11:06:08.105Z,4.40
2018-01-23T11:07:08.069Z,4.20
2018-01-23T11:08:08.033Z,4.50
2018-01-23T11:09:07.994Z,4.10
2018-01-23T11:10:07.954Z,4.10
2018-01-23T11:11:07.920Z,3.60
2018-01-23T11:12:07.917Z,4.20
2018-01-23T11:13:07.848Z,4.00
2018-01-23T11:14:07.809Z,4.00
2018-01-23T11:15:07.771Z,3.60
2018-01-23T11:16:07.737Z,4.10
2018-01-23T11:17:07.698Z,3.00
2018-01-23T11:18:07.659Z,3.80
2018-01-23T11:19:07.630Z,3.30
2018-01-23T11:20:07.587Z,3.20
2018-01-23T11:21:07.551Z,3.50
2018-01-23T11:22:07.514Z,4.50
2018-01-23T11:23:07.479Z,3.80
2018-01-23T11:24:07.441Z,3.60
2018-01-23T11:25:07.402Z,3.70
2018-01-23T11:26:07.366Z,3.00
2018-01-23T11:27:07.330Z,3.50
2018-01-23T11:28:07.294Z,2.80
2018-01-23T11:29:07.258Z,3.40
2018-01-23T11:30:07.221Z,3.00
2018-01-23T11:31:07.184Z,3.50
2018-01-23T11:32:07.147Z,3.40
2018-01-23T11:33:07.112Z,3.30
2018-01-23T11:34:07.071Z,3.90
2018-01-23T11:35:07.036Z,3.60
2018-01-23T11:36:07.000Z,4.00
2018-01-23T11:37:06.964Z,4.10
2018-01-23T11:38:06.928Z,3.60
2018-01-23T11:39:06.888Z,3.40
2018-01-23T11:40:06.848Z,3.20
2018-01-23T11:41:06.818Z,3.60
2018-01-23T11:42:06.780Z,3.60
2018-01-23T11:43:06.741Z,3.40
2018-01-23T11:44:06.706Z,3.60
2018-01-23T11:45:06.670Z,3.10
2018-01-23T11:46:06.632Z,3.20
2018-01-23T11:47:06.595Z,3.20
2018-01-23T11:48:06.671Z,2.80
2018-01-23T11:49:06.529Z,3.60
2018-01-23T11:50:06.486Z,3.10
2018-01-23T11:51:06.450Z,3.90
2018-01-23T11:52:06.412Z,3.90
2018-01-23T11:53:06.378Z,3.70
2018-01-23T11:54:06.339Z,4.30
2018-01-23T11:55:06.299Z,3.70
2018-01-23T11:56:06.267Z,3.50
2018-01-23T11:57:06.230Z,3.20
2018-01-23T11:58:06.192Z,3.50
2018-01-23T11:59:06.161Z,3.70
2018-01-23T12:00:06.121Z,3.80
2018-01-23T12:01:06.085Z,3.40
2018-01-23T12:02:06.048Z,4.00
2018-01-23T12:03:06.011Z,3.60
2018-01-23T12:04:05.989Z,4.00
2018-01-23T12:05:05.939Z,3.50
2018-01-23T12:06:05.904Z,3.60
2018-01-23T12:07:05.868Z,3.50
2018-01-23T12:08:05.830Z,3.30
2018-01-23T12:09:05.795Z,3.90
2018-01-23T12:10:05.756Z,3.30
2018-01-23T12:11:05.720Z,3.20
2018-01-23T12:12:05.679Z,4.10
2018-01-23T12:13:05.644Z,3.10
2018-01-23T12:14:05.611Z,3.40
2018-01-23T12:15:05.572Z,3.90
2018-01-23T12:16:05.534Z,3.60
2018-01-23T12:17:05.502Z,3.90
2018-01-23T12:18:05.462Z,3.40
2018-01-23T12:19:05.455Z,3.80
2018-01-23T12:20:05.389Z,3.80
2018-01-23T12:21:05.353Z,3.00
2018-01-23T12:22:05.312Z,3.00
2018-01-23T12:23:05.278Z,3.60
2018-01-23T12:24:05.245Z,3.60
2018-01-23T12:25:05.207Z,4.20
2018-01-23T12:26:05.170Z,3.80
2018-01-23T12:27:05.133Z,3.40
2018-01-23T12:28:05.097Z,3.70
2018-01-23T12:29:05.059Z,3.30
2018-01-23T12:30:05.025Z,4.00
2018-01-23T12:31:05.003Z,4.10
2018-01-23T12:32:04.952Z,3.80
2018-01-23T12:33:04.916Z,3.60
2018-01-23T12:34:04.883Z,3.80
2018-01-23T12:35:04.840Z,4.00
2018-01-23T12:36:04.806Z,4.20
2018-01-23T12:37:04.769Z,3.90
2018-01-23T12:38:04.733Z,3.70
2018-01-23T12:39:04.697Z,3.40
2018-01-23T12:40:04.660Z,3.50
2018-01-23T12:41:04.627Z,3.60
2018-01-23T12:42:04.589Z,3.90
2018-01-23T12:43:04.551Z,3.90
2018-01-23T12:44:04.520Z,4.10
2018-01-23T12:45:04.481Z,4.10
2018-01-23T12:46:04.442Z,4.00
2018-01-23T12:47:04.407Z,4.10
2018-01-23T12:48:04.370Z,4.00
2018-01-23T12:49:04.342Z,4.40
2018-01-23T12:50:04.300Z,4.30
2018-01-23T12:51:04.263Z,4.10
2018-01-23T12:52:04.230Z,3.90
2018-01-23T12:53:04.192Z,3.70
2018-01-23T12:54:04.196Z,3.60
2018-01-23T12:55:04.138Z,3.80
2018-01-23T12:56:04.083Z,4.10
2018-01-23T12:57:04.048Z,3.40
2018-01-23T12:58:04.012Z,3.60
2018-01-23T12:59:04.056Z,3.80
2018-01-23T13:00:03.944Z,3.40
2018-01-23T13:01:03.907Z,3.60
2018-01-23T13:02:03.867Z,3.80
2018-01-23T13:03:03.833Z,3.30
2018-01-23T13:04:03.798Z,4.30
2018-01-23T13:05:03.764Z,4.00
2018-01-23T13:06:03.725Z,3.60
2018-01-23T13:07:03.694Z,3.30